Moorhead, Iowa
Current Conditions -  °F | °C
As of 2:03 PM on Sunday 25 Jan 2015 (Local Time) from KTQE Reporting Station
Overcast Overcast  
Wind Chill: 33°   Ceiling: 4000
Heat Index: 41°   Visibility: 10mi
Dew Point: 33°   Wind: 15mph
Humidity: 73%   Direction: 350°N
Pressure: 30.01"   Gusts: NA
Location:  41.92°N, 95.85°W
Report Text: KTQE 252003Z AUTO 35013KT 10SM SCT020 OVC040 05/01 A3001 RMK AO2 T00500006
Loading
Personal Weather Stations






























Interactive Weather Map New forecast layout! Learn more

10-Day Weather Forecast

Advertisements
Track Severe Weather on mobile